Agios Ioannis II — SV4996 — position and weather

sailwx.info

Track history (hours):
 
Tides and Currents Weather Stations Pressure Air Temp Water Temp Dewpoint Dewpoint Depression Visibility Wind Speed Wind Dir Waves Ship Positions

Agios Ioannis II

Last reported at 2014-Sep-14 14:22 UTC. Time now 2014-Sep-15 02:06 UTC.
Position N 38°05' E 026°15'.

Length 27 m.

Type: Other ship. MMSI: 237519000.

Date/timePositionNaut miles runAvg speedWind from/ knotsBaromVisibWave heightAir tempDewpointWater temp
2014-Sep-14 14:22N 38°05' E 026°15'30 1.8
2014-Sep-13 21:33N 38°23' E 025°45'11 1.6
2014-Sep-13 14:29N 38°13' E 025°42'3 3.0
2014-Sep-13 13:33N 38°11' E 025°39'3 3.1
2014-Sep-13 12:33N 38°09' E 025°36'6 3.0
2014-Sep-13 10:33N 38°06' E 025°30'1 1.3
2014-Sep-13 09:33N 38°06' E 025°31'3 3.1
2014-Sep-13 08:27N 38°09' E 025°34'3 3.1
2014-Sep-13 07:33N 38°11' E 025°37'3 3.0
2014-Sep-13 06:33N 38°12' E 025°40'3 3.2
2014-Sep-13 05:33N 38°14' E 025°44'8 1.3
2014-Sep-12 23:30N 38°21' E 025°46'3 3.0
2014-Sep-12 22:33N 38°23' E 025°44'2 1.4
2014-Sep-12 21:24N 38°22' E 025°46'14 1.0
2014-Sep-12 07:23N 38°09' E 025°41'3 3.0
2014-Sep-12 06:26N 38°09' E 025°45'5 2.5
2014-Sep-12 04:29N 38°05' E 025°46'1 0.9
2014-Sep-12 03:29N 38°04' E 025°46'23 1.8
2014-Sep-11 14:30N 38°05' E 026°16'3 3.0
2014-Sep-11 13:28N 38°04' E 026°20'8 0.3
2014-Sep-10 14:33N 38°04' E 026°10'25 1.0
2014-Sep-09 14:27N 38°11' E 025°40'  
2014-Sep-05 03:12N 37°58' E 025°46'2 2.8
2014-Sep-05 02:33N 37°60' E 025°44'2 2.3
2014-Sep-05 01:33N 38°02' E 025°44'0 0.3
2014-Sep-05 00:33N 38°02' E 025°44'2 0.7
2014-Sep-04 21:26N 38°02' E 025°47'  
Track history (hours):
 
Tides and Currents Weather Stations Pressure Air Temp Water Temp Dewpoint Dewpoint Depression Visibility Wind Speed Wind Dir Waves Ship Positions

Agios Ioannis II

Last reported at 2014-Sep-14 14:22 UTC. Time now 2014-Sep-15 02:06 UTC.
Position N 38°05' E 026°15'.

Length 27 m.

Type: Other ship. MMSI: 237519000.

Date/timePositionNaut miles runAvg speedWind from/ knotsBaromVisibWave heightAir tempDewpointWater temp
2014-Sep-14 14:22N 38°05' E 026°15'30 1.8
2014-Sep-13 21:33N 38°23' E 025°45'11 1.6
2014-Sep-13 14:29N 38°13' E 025°42'3 3.0
2014-Sep-13 13:33N 38°11' E 025°39'3 3.1
2014-Sep-13 12:33N 38°09' E 025°36'6 3.0
2014-Sep-13 10:33N 38°06' E 025°30'1 1.3
2014-Sep-13 09:33N 38°06' E 025°31'3 3.1
2014-Sep-13 08:27N 38°09' E 025°34'3 3.1
2014-Sep-13 07:33N 38°11' E 025°37'3 3.0
2014-Sep-13 06:33N 38°12' E 025°40'3 3.2
2014-Sep-13 05:33N 38°14' E 025°44'8 1.3
2014-Sep-12 23:30N 38°21' E 025°46'3 3.0
2014-Sep-12 22:33N 38°23' E 025°44'2 1.4
2014-Sep-12 21:24N 38°22' E 025°46'14 1.0
2014-Sep-12 07:23N 38°09' E 025°41'3 3.0
2014-Sep-12 06:26N 38°09' E 025°45'5 2.5
2014-Sep-12 04:29N 38°05' E 025°46'1 0.9
2014-Sep-12 03:29N 38°04' E 025°46'23 1.8
2014-Sep-11 14:30N 38°05' E 026°16'3 3.0
2014-Sep-11 13:28N 38°04' E 026°20'8 0.3
2014-Sep-10 14:33N 38°04' E 026°10'25 1.0
2014-Sep-09 14:27N 38°11' E 025°40'  
2014-Sep-05 03:12N 37°58' E 025°46'2 2.8
2014-Sep-05 02:33N 37°60' E 025°44'2 2.3
2014-Sep-05 01:33N 38°02' E 025°44'0 0.3
2014-Sep-05 00:33N 38°02' E 025°44'2 0.7
2014-Sep-04 21:26N 38°02' E 025°47'  

Dump ship's entire track history